East Point, GA

12:01 AM EST on December 10, 2019 (GMT -0500)
Elmwood | | Change Station

Elev 1050 ft 33.66 °N, 84.43 °W | Updated 6 seconds ago

Overcast
Overcast
57.4 °F
Feels Like 57.4 °F
N
0
Wind Variable Wind from North
Gusts 0.0 mph

Today
High -- | Low -- °F
--% Chance of Precip.
Yesterday
High -- | Low -- °F
Precip. -- in
Pressure 30.00 in
Visibility 9.0 miles
Clouds Mostly Cloudy 2500 ft
Mostly Cloudy 5000 ft
Overcast 25000 ft
Dew Point 56 °F
Humidity 94%
Rainfall 0.00 in
Snow Depth Not available.
7:31 AM 5:29 PM
Waxing Gibbous, 96% visible
SPECI KATL 100429Z 18006KT 9SM BKN025 BKN050 OVC250 16/12 A3000 RMK AO2 T01560122
Pressure 30.00 in
Visibility 9.0 miles
Clouds Mostly Cloudy 2500 ft
Mostly Cloudy 5000 ft
Overcast 25000 ft
Dew Point 56 °F
Humidity 94%
Rainfall 0.00 in
Snow Depth Not available.
7:31 AM 5:29 PM
Waxing Gibbous, 96% visible
SPECI KATL 100429Z 18006KT 9SM BKN025 BKN050 OVC250 16/12 A3000 RMK AO2 T01560122

Get Severe Weather Alerts

Thanks for signing up!

Be on the lookout for a verification email in your inbox.

You'll start receiving the daily forecast at 6 AM.

×

10-Day Weather Forecast

Almanac

Astronomy

Dec. 10, 2019 Rise Set
Actual Time
Civil Twilight
Nautical Twilight
Astronomical Twilight
Moon
Length of Visible Light
Length of Day
Tomorrow will be .
, % of the Moon is Illuminated

Today's Extremes

State Highs State Lows

Community

WunderPhotos

Category 6

Welcome to Category 6. This is the collective home for Weather Underground's featured writeups by Dr. Jeff Masters (right), Bob Henson (left), Chris Burt, and other regular contributors.

Nearby

Air Quality

  Air Quality AQ Index Pollutant
Not available.

Snow Depth

Station Depth Elevation

Earthquake Activity

City Distance Mag. Time & Date
Minimum magnitude displayed is 2.5.

Coastal Water Temperatures

Place Temperature

Stations

Nearby Weather Stations

Station Location Temp. Windchill Dew Point Humidity Wind Precip. Elev Updated Type
                   

Watches & Warnings

There are currently no watches in effect.